Time,TemperatureF,DewpointF,PressureIn,WindDirection,WindDirectionDegrees,WindSpeedMPH,WindSpeedGustMPH,Humidity,HourlyPrecipIn,Conditions,Clouds,dailyrainin,SoftwareType,DateUTC
2013-01-28 00:02:00,29.7,26.3,29.80,WSW,258,0.0,0.0,87,0.00,,CLR,0.00,VWS V14.00,2013-01-28 07:02:00,
2013-01-28 00:07:00,29.5,26.1,29.83,West,259,0.0,0.0,87,0.00,,CLR,0.00,VWS V14.00,2013-01-28 07:07:00,
2013-01-28 00:12:00,29.5,26.1,29.83,WSW,258,0.0,0.0,87,0.00,,CLR,0.00,VWS V14.00,2013-01-28 07:12:00,
2013-01-28 00:17:00,29.3,25.9,29.83,West,259,0.0,0.0,87,0.00,,CLR,0.00,VWS V14.00,2013-01-28 07:17:00,
2013-01-28 00:22:00,29.3,25.9,29.80,WSW,258,0.0,0.0,87,0.00,,CLR,0.00,VWS V14.00,2013-01-28 07:22:00,
2013-01-28 00:27:00,29.1,25.7,29.80,WSW,258,0.0,0.0,87,0.00,,CLR,0.00,VWS V14.00,2013-01-28 07:27:00,
2013-01-28 00:32:00,29.1,25.7,29.80,WSW,258,0.0,0.0,87,0.00,,CLR,0.00,VWS V14.00,2013-01-28 07:32:00,
2013-01-28 00:37:00,29.1,25.7,29.80,WSW,258,0.0,0.0,87,0.00,,CLR,0.00,VWS V14.00,2013-01-28 07:37:00,
2013-01-28 00:42:00,28.9,25.6,29.80,WSW,258,0.0,0.0,87,0.00,,CLR,0.00,VWS V14.00,2013-01-28 07:42:00,
2013-01-28 00:47:00,28.6,25.2,29.80,West,259,0.0,0.0,87,0.00,,CLR,0.00,VWS V14.00,2013-01-28 07:47:00,
2013-01-28 00:52:00,28.4,25.0,29.80,West,259,0.0,0.0,87,0.00,,CLR,0.00,VWS V14.00,2013-01-28 07:52:00,
2013-01-28 00:57:00,28.6,25.2,29.80,West,259,0.0,0.0,87,0.00,,CLR,0.00,VWS V14.00,2013-01-28 07:57:00,
2013-01-28 01:02:00,28.6,25.2,29.80,WSW,258,0.0,0.0,87,0.00,,CLR,0.00,VWS V14.00,2013-01-28 08:02:00,
2013-01-28 01:07:00,28.4,25.0,29.80,WSW,258,0.0,0.0,87,0.00,,CLR,0.00,VWS V14.00,2013-01-28 08:07:00,
2013-01-28 01:12:00,28.4,25.0,29.80,WSW,258,0.0,0.0,87,0.00,,CLR,0.00,VWS V14.00,2013-01-28 08:12:00,
2013-01-28 01:17:00,28.2,24.9,29.80,West,259,0.0,0.0,87,0.00,,CLR,0.00,VWS V14.00,2013-01-28 08:17:00,
2013-01-28 01:22:00,28.2,24.9,29.80,West,259,0.0,0.0,87,0.00,,CLR,0.00,VWS V14.00,2013-01-28 08:22:00,
2013-01-28 01:27:00,28.4,25.0,29.80,West,259,0.0,0.0,87,0.00,,CLR,0.00,VWS V14.00,2013-01-28 08:27:00,
2013-01-28 01:32:00,28.4,25.0,29.80,West,259,0.0,0.0,87,0.00,,CLR,0.00,VWS V14.00,2013-01-28 08:32:00,
2013-01-28 01:37:00,28.4,25.0,29.80,West,259,0.0,0.0,87,0.00,,CLR,0.00,VWS V14.00,2013-01-28 08:37:00,
2013-01-28 01:42:00,28.4,25.0,29.80,West,259,0.0,0.0,87,0.00,,CLR,0.00,VWS V14.00,2013-01-28 08:42:00,
2013-01-28 01:47:00,28.4,25.0,29.80,West,260,0.0,0.0,87,0.00,,CLR,0.00,VWS V14.00,2013-01-28 08:47:00,
2013-01-28 01:52:00,28.4,25.0,29.80,West,259,0.0,0.0,87,0.00,,CLR,0.00,VWS V14.00,2013-01-28 08:52:00,
2013-01-28 01:57:00,28.4,25.0,29.80,West,259,0.0,0.0,87,0.00,,CLR,0.00,VWS V14.00,2013-01-28 08:57:00,
2013-01-28 02:02:00,28.4,25.0,29.80,West,259,0.0,0.0,87,0.00,,CLR,0.00,VWS V14.00,2013-01-28 09:02:00,
2013-01-28 02:07:00,28.2,24.9,29.80,West,259,0.0,0.0,87,0.00,,CLR,0.00,VWS V14.00,2013-01-28 09:07:00,
2013-01-28 02:12:00,28.2,24.9,29.80,WSW,258,0.0,0.0,87,0.00,,CLR,0.00,VWS V14.00,2013-01-28 09:12:00,
2013-01-28 02:17:00,28.2,24.9,29.80,West,260,0.0,0.0,87,0.00,,CLR,0.00,VWS V14.00,2013-01-28 09:17:00,
2013-01-28 02:22:00,28.2,24.9,29.80,WSW,258,0.0,0.0,87,0.00,,CLR,0.00,VWS V14.00,2013-01-28 09:22:00,
2013-01-28 02:27:00,28.0,24.7,29.80,West,259,0.0,0.0,87,0.00,,CLR,0.00,VWS V14.00,2013-01-28 09:27:00,
2013-01-28 02:32:00,28.2,24.9,29.80,West,260,0.0,0.0,87,0.00,,CLR,0.00,VWS V14.00,2013-01-28 09:32:00,
2013-01-28 02:37:00,28.2,24.9,29.80,West,259,0.0,0.0,87,0.00,,CLR,0.00,VWS V14.00,2013-01-28 09:37:00,
2013-01-28 02:42:00,28.2,24.9,29.80,West,259,0.0,0.0,87,0.00,,CLR,0.00,VWS V14.00,2013-01-28 09:42:00,
2013-01-28 02:47:00,28.2,24.9,29.80,West,259,0.0,0.0,87,0.00,,CLR,0.00,VWS V14.00,2013-01-28 09:47:00,
2013-01-28 02:52:00,28.2,24.9,29.80,West,259,0.0,0.0,87,0.00,,CLR,0.00,VWS V14.00,2013-01-28 09:52:00,
2013-01-28 02:57:00,28.4,25.0,29.80,West,259,0.0,0.0,87,0.00,,CLR,0.00,VWS V14.00,2013-01-28 09:57:00,
2013-01-28 03:02:00,28.6,25.2,29.80,West,259,0.0,0.0,87,0.00,,CLR,0.00,VWS V14.00,2013-01-28 10:02:00,
2013-01-28 03:07:00,28.6,25.2,29.80,West,259,0.0,0.0,87,0.00,,CLR,0.00,VWS V14.00,2013-01-28 10:07:00,
2013-01-28 03:12:00,28.8,25.4,29.80,WSW,258,0.0,0.0,87,0.00,,CLR,0.00,VWS V14.00,2013-01-28 10:12:00,
2013-01-28 03:17:00,28.8,25.4,29.80,West,259,0.0,0.0,87,0.00,,CLR,0.00,VWS V14.00,2013-01-28 10:17:00,
2013-01-28 03:22:00,28.8,25.4,29.80,West,259,0.0,0.0,87,0.00,,CLR,0.00,VWS V14.00,2013-01-28 10:22:00,
2013-01-28 03:27:00,28.8,25.4,29.80,West,259,0.0,0.0,87,0.00,,CLR,0.00,VWS V14.00,2013-01-28 10:27:00,
2013-01-28 03:32:00,28.8,25.4,29.80,WSW,258,0.0,0.0,87,0.00,,CLR,0.00,VWS V14.00,2013-01-28 10:32:00,
2013-01-28 03:37:00,28.8,25.4,29.80,West,259,0.0,0.0,87,0.00,,CLR,0.00,VWS V14.00,2013-01-28 10:37:00,
2013-01-28 03:42:00,28.8,25.4,29.80,West,259,0.0,0.0,87,0.00,,CLR,0.00,VWS V14.00,2013-01-28 10:42:00,
2013-01-28 03:47:00,28.6,25.2,29.80,West,259,0.0,0.0,87,0.00,,CLR,0.00,VWS V14.00,2013-01-28 10:47:00,
2013-01-28 03:52:00,28.8,25.4,29.80,West,259,0.0,0.0,87,0.00,,CLR,0.00,VWS V14.00,2013-01-28 10:52:00,
2013-01-28 03:57:00,28.8,25.4,29.80,WSW,258,0.0,0.0,87,0.00,,CLR,0.00,VWS V14.00,2013-01-28 10:57:00,
2013-01-28 04:02:00,28.6,25.2,29.80,WSW,258,0.0,0.0,87,0.00,,CLR,0.00,VWS V14.00,2013-01-28 11:02:00,
2013-01-28 04:07:00,28.6,25.2,29.80,West,259,0.0,0.0,87,0.00,,CLR,0.00,VWS V14.00,2013-01-28 11:07:00,
2013-01-28 04:12:00,28.4,25.3,29.80,West,259,0.0,0.0,88,0.00,,CLR,0.00,VWS V14.00,2013-01-28 11:12:00,
2013-01-28 04:17:00,28.4,25.0,29.80,WSW,258,0.0,0.0,87,0.00,,CLR,0.00,VWS V14.00,2013-01-28 11:17:00,
2013-01-28 04:22:00,28.4,25.0,29.80,WSW,258,0.0,0.0,87,0.00,,CLR,0.00,VWS V14.00,2013-01-28 11:22:00,
2013-01-28 04:27:00,28.2,24.9,29.80,West,259,0.0,0.0,87,0.00,,CLR,0.00,VWS V14.00,2013-01-28 11:27:00,
2013-01-28 04:32:00,28.2,24.9,29.80,West,260,0.0,0.0,87,0.00,,CLR,0.00,VWS V14.00,2013-01-28 11:32:00,
2013-01-28 04:37:00,28.0,24.7,29.80,West,259,0.0,0.0,87,0.00,,CLR,0.00,VWS V14.00,2013-01-28 11:37:00,
2013-01-28 04:42:00,28.0,24.7,29.80,West,259,0.0,0.0,87,0.00,,CLR,0.00,VWS V14.00,2013-01-28 11:42:00,
2013-01-28 04:47:00,28.0,24.7,29.80,WSW,258,0.0,0.0,87,0.00,,CLR,0.00,VWS V14.00,2013-01-28 11:47:00,
2013-01-28 04:52:00,27.9,24.5,29.80,West,259,0.0,0.0,87,0.00,,CLR,0.00,VWS V14.00,2013-01-28 11:52:00,
2013-01-28 04:57:00,27.9,24.5,29.80,WSW,258,0.0,0.0,87,0.00,,CLR,0.00,VWS V14.00,2013-01-28 11:57:00,
2013-01-28 05:02:00,27.7,24.3,29.80,West,259,0.0,0.0,87,0.00,,CLR,0.00,VWS V14.00,2013-01-28 12:02:00,
2013-01-28 05:07:00,27.7,24.3,29.80,West,259,0.0,0.0,87,0.00,,FEW010,0.00,VWS V14.00,2013-01-28 12:07:00,
2013-01-28 05:12:00,27.7,24.3,29.80,West,260,0.0,0.0,87,0.00,,FEW010,0.00,VWS V14.00,2013-01-28 12:12:00,
2013-01-28 05:17:00,27.7,24.3,29.80,West,260,0.0,0.0,87,0.00,,FEW010,0.00,VWS V14.00,2013-01-28 12:17:00,
2013-01-28 05:22:00,27.7,24.3,29.80,WSW,258,0.0,0.0,87,0.00,,FEW010,0.00,VWS V14.00,2013-01-28 12:22:00,
2013-01-28 05:27:00,27.9,24.5,29.80,WSW,258,0.0,0.0,87,0.00,,FEW010,0.00,VWS V14.00,2013-01-28 12:27:00,
2013-01-28 05:32:00,27.7,24.3,29.80,WSW,258,0.0,0.0,87,0.00,,FEW010,0.00,VWS V14.00,2013-01-28 12:32:00,
2013-01-28 05:37:00,27.5,24.1,29.80,West,259,0.0,0.0,87,0.00,,FEW010,0.00,VWS V14.00,2013-01-28 12:37:00,
2013-01-28 05:42:00,27.3,24.0,29.80,West,259,0.0,0.0,87,0.00,,FEW010,0.00,VWS V14.00,2013-01-28 12:42:00,
2013-01-28 05:47:00,27.3,24.0,29.80,WSW,258,0.0,0.0,87,0.00,,FEW010,0.00,VWS V14.00,2013-01-28 12:47:00,
2013-01-28 05:52:00,27.1,23.5,29.80,WSW,258,0.0,0.0,86,0.00,,FEW010,0.00,VWS V14.00,2013-01-28 12:52:00,
2013-01-28 05:57:00,27.0,23.3,29.80,WSW,258,0.0,0.0,86,0.00,,FEW010,0.00,VWS V14.00,2013-01-28 12:57:00,
2013-01-28 06:02:00,26.8,23.2,29.80,West,259,0.0,0.0,86,0.00,,FEW010,0.00,VWS V14.00,2013-01-28 13:02:00,
2013-01-28 06:07:00,26.8,23.2,29.80,West,259,0.0,0.0,86,0.00,,FEW010,0.00,VWS V14.00,2013-01-28 13:07:00,
2013-01-28 06:12:00,26.8,23.2,29.80,West,259,0.0,0.0,86,0.00,,FEW010,0.00,VWS V14.00,2013-01-28 13:12:00,
2013-01-28 06:17:00,26.8,23.2,29.80,West,259,0.0,0.0,86,0.00,,FEW010,0.00,VWS V14.00,2013-01-28 13:17:00,
2013-01-28 06:22:00,27.0,23.3,29.80,West,260,0.0,0.0,86,0.00,,FEW010,0.00,VWS V14.00,2013-01-28 13:22:00,
2013-01-28 06:27:00,27.0,23.3,29.80,WSW,258,0.0,0.0,86,0.00,,FEW010,0.00,VWS V14.00,2013-01-28 13:27:00,
2013-01-28 06:32:00,26.8,23.2,29.80,West,259,0.0,0.0,86,0.00,,FEW010,0.00,VWS V14.00,2013-01-28 13:32:00,
2013-01-28 06:37:00,26.8,23.2,29.83,West,259,0.0,0.0,86,0.00,,FEW010,0.00,VWS V14.00,2013-01-28 13:37:00,
2013-01-28 06:42:00,26.8,23.2,29.83,West,260,0.0,0.0,86,0.00,,FEW010,0.00,VWS V14.00,2013-01-28 13:42:00,
2013-01-28 06:47:00,26.8,23.2,29.83,West,259,0.0,0.0,86,0.00,,FEW010,0.00,VWS V14.00,2013-01-28 13:47:00,
2013-01-28 06:52:00,26.8,23.2,29.80,West,259,0.0,0.0,86,0.00,,FEW010,0.00,VWS V14.00,2013-01-28 13:52:00,
2013-01-28 06:57:00,26.6,23.0,29.80,West,259,0.0,0.0,86,0.00,,FEW010,0.00,VWS V14.00,2013-01-28 13:57:00,
2013-01-28 07:02:00,26.4,22.8,29.80,West,260,0.0,0.0,86,0.00,,FEW010,0.00,VWS V14.00,2013-01-28 14:02:00,
2013-01-28 07:07:00,26.4,22.8,29.83,WSW,258,0.0,0.0,86,0.00,,FEW010,0.00,VWS V14.00,2013-01-28 14:07:00,
2013-01-28 07:12:00,26.4,22.8,29.83,West,259,0.0,0.0,86,0.00,,FEW010,0.00,VWS V14.00,2013-01-28 14:12:00,
2013-01-28 07:17:00,26.4,22.8,29.83,West,260,0.0,0.0,86,0.00,,FEW010,0.00,VWS V14.00,2013-01-28 14:17:00,
2013-01-28 07:22:00,26.4,22.8,29.83,West,259,0.0,0.0,86,0.00,,FEW010,0.00,VWS V14.00,2013-01-28 14:22:00,
2013-01-28 07:27:00,26.2,22.6,29.83,West,259,0.0,0.0,86,0.00,,FEW010,0.00,VWS V14.00,2013-01-28 14:27:00,
2013-01-28 07:32:00,26.2,22.6,29.83,West,260,0.0,0.0,86,0.00,,FEW010,0.00,VWS V14.00,2013-01-28 14:32:00,
2013-01-28 07:37:00,26.1,22.5,29.83,WSW,258,0.0,0.0,86,0.00,,FEW010,0.00,VWS V14.00,2013-01-28 14:37:00,
2013-01-28 07:42:00,26.1,22.5,29.83,WSW,258,0.0,0.0,86,0.00,,FEW010,0.00,VWS V14.00,2013-01-28 14:42:00,
2013-01-28 07:47:00,26.1,22.5,29.83,West,259,0.0,0.0,86,0.00,,FEW010,0.00,VWS V14.00,2013-01-28 14:47:00,
2013-01-28 07:52:00,25.9,22.3,29.83,West,259,0.0,0.0,86,0.00,,FEW010,0.00,VWS V14.00,2013-01-28 14:52:00,
2013-01-28 07:57:00,25.7,22.1,29.83,West,259,0.0,0.0,86,0.00,,FEW010,0.00,VWS V14.00,2013-01-28 14:57:00,
2013-01-28 08:02:00,25.7,22.1,29.83,West,259,0.0,0.0,86,0.00,,FEW010,0.00,VWS V14.00,2013-01-28 15:02:00,
2013-01-28 08:07:00,25.7,22.1,29.83,West,259,0.0,0.0,86,0.00,,FEW010,0.00,VWS V14.00,2013-01-28 15:07:00,
2013-01-28 08:12:00,25.7,22.1,29.83,WSW,258,0.0,0.0,86,0.00,,FEW010,0.00,VWS V14.00,2013-01-28 15:12:00,
2013-01-28 08:17:00,25.7,22.1,29.83,WSW,258,0.0,0.0,86,0.00,,FEW010,0.00,VWS V14.00,2013-01-28 15:17:00,
2013-01-28 08:22:00,25.5,21.9,29.83,West,259,0.0,0.0,86,0.00,,FEW010,0.00,VWS V14.00,2013-01-28 15:22:00,
2013-01-28 08:27:00,25.3,21.8,29.83,West,259,0.0,0.0,86,0.00,,FEW010,0.00,VWS V14.00,2013-01-28 15:27:00,
2013-01-28 08:32:00,25.3,21.5,29.83,West,259,0.0,0.0,85,0.00,,FEW010,0.00,VWS V14.00,2013-01-28 15:32:00,
2013-01-28 08:37:00,25.2,21.3,29.83,West,259,0.0,0.0,85,0.00,,FEW010,0.00,VWS V14.00,2013-01-28 15:37:00,
2013-01-28 08:42:00,25.2,21.3,29.83,West,259,0.0,0.0,85,0.00,,FEW010,0.00,VWS V14.00,2013-01-28 15:42:00,
2013-01-28 08:47:00,24.6,20.8,29.83,West,259,0.0,0.0,85,0.00,,FEW010,0.00,VWS V14.00,2013-01-28 15:47:00,
2013-01-28 08:52:00,24.4,20.6,29.83,West,260,0.0,0.0,85,0.00,,FEW010,0.00,VWS V14.00,2013-01-28 15:52:00,
2013-01-28 08:57:00,24.4,20.6,29.83,West,259,0.0,0.0,85,0.00,,FEW010,0.00,VWS V14.00,2013-01-28 15:57:00,
2013-01-28 09:02:00,24.4,20.6,29.83,WSW,258,0.0,0.0,85,0.00,,FEW010,0.00,VWS V14.00,2013-01-28 16:02:00,
2013-01-28 09:07:00,24.6,21.0,29.83,West,259,0.0,0.0,86,0.00,,SCT045,0.00,VWS V14.00,2013-01-28 16:07:00,
2013-01-28 09:12:00,24.6,21.0,29.83,West,259,0.0,0.0,86,0.00,,SCT045,0.00,VWS V14.00,2013-01-28 16:12:00,
2013-01-28 09:17:00,24.4,20.9,29.83,West,260,0.0,0.0,86,0.00,,SCT045,0.00,VWS V14.00,2013-01-28 16:17:00,
2013-01-28 09:22:00,24.4,20.6,29.80,WSW,258,0.0,0.0,85,0.00,,SCT045,0.00,VWS V14.00,2013-01-28 16:22:00,
2013-01-28 09:28:00,24.4,20.9,29.80,WSW,258,0.0,0.0,86,0.00,,SCT045,0.00,VWS V14.00,2013-01-28 16:28:00,
2013-01-28 09:33:00,25.2,21.6,29.80,West,259,0.0,0.0,86,0.00,,SCT045,0.00,VWS V14.00,2013-01-28 16:33:00,
2013-01-28 09:37:00,26.1,22.7,29.80,WSW,258,0.0,0.0,87,0.00,,SCT045,0.00,VWS V14.00,2013-01-28 16:37:00,
2013-01-28 09:42:00,27.0,23.6,29.80,West,275,0.0,0.0,87,0.00,,SCT045,0.00,VWS V14.00,2013-01-28 16:42:00,
2013-01-28 09:47:00,27.5,23.9,29.80,WNW,284,0.0,0.0,86,0.00,,SCT045,0.00,VWS V14.00,2013-01-28 16:47:00,
2013-01-28 09:52:00,28.2,23.7,29.80,West,271,0.0,0.0,83,0.00,,SCT045,0.00,VWS V14.00,2013-01-28 16:52:00,
2013-01-28 09:57:00,28.9,23.6,29.80,West,270,0.0,0.0,80,0.00,,SCT045,0.00,VWS V14.00,2013-01-28 16:57:00,
2013-01-28 10:02:00,29.3,23.6,29.80,West,270,0.0,0.0,79,0.00,,SCT045,0.00,VWS V14.00,2013-01-28 17:02:00,
2013-01-28 10:07:00,29.7,23.6,29.80,SW,226,0.0,0.0,78,0.00,,SCT045,0.00,VWS V14.00,2013-01-28 17:07:00,
2013-01-28 10:12:00,30.0,24.0,29.80,SW,225,0.0,0.0,78,0.00,,SCT045,0.00,VWS V14.00,2013-01-28 17:12:00,
2013-01-28 10:17:00,30.0,23.7,29.80,SW,226,0.0,0.0,77,0.00,,SCT045,0.00,VWS V14.00,2013-01-28 17:17:00,
2013-01-28 10:22:00,30.2,24.2,29.80,SW,225,0.0,0.0,78,0.00,,SCT045,0.00,VWS V14.00,2013-01-28 17:22:00,
2013-01-28 10:27:00,30.6,23.9,29.80,SW,226,0.0,0.0,76,0.00,,SCT045,0.00,VWS V14.00,2013-01-28 17:27:00,
2013-01-28 10:32:00,31.1,24.4,29.80,SW,222,0.0,0.0,76,0.00,,SCT045,0.00,VWS V14.00,2013-01-28 17:32:00,
2013-01-28 10:37:00,31.6,24.6,29.83,SSW,211,0.0,0.0,75,0.00,,SCT045,0.00,VWS V14.00,2013-01-28 17:37:00,
2013-01-28 10:42:00,32.0,23.3,29.83,WSW,238,0.0,0.0,70,0.00,,SCT045,0.00,VWS V14.00,2013-01-28 17:42:00,
2013-01-28 10:47:00,32.2,23.2,29.83,WSW,238,0.0,0.0,69,0.00,,SCT045,0.00,VWS V14.00,2013-01-28 17:47:00,
2013-01-28 10:52:00,32.5,23.2,29.83,WSW,238,0.0,0.0,68,0.00,,SCT045,0.04,VWS V14.00,2013-01-28 17:52:00,
2013-01-28 10:57:00,32.7,22.3,29.83,SW,222,0.0,0.0,65,0.00,,SCT045,0.04,VWS V14.00,2013-01-28 17:57:00,
2013-01-28 11:02:00,32.7,21.9,29.83,SW,221,0.0,0.0,64,0.00,,SCT045,0.04,VWS V14.00,2013-01-28 18:02:00,
2013-01-28 11:07:00,32.7,20.8,29.83,SW,221,0.0,0.0,61,0.00,,SCT200,0.04,VWS V14.00,2013-01-28 18:07:00,
2013-01-28 11:12:00,33.1,21.9,29.83,SSW,208,2.2,4.0,63,0.00,,SCT200,0.04,VWS V14.00,2013-01-28 18:12:00,
2013-01-28 11:17:00,32.9,21.3,29.83,SW,218,2.2,4.0,62,0.00,,SCT200,0.04,VWS V14.00,2013-01-28 18:17:00,
2013-01-28 11:22:00,32.9,20.9,29.80,SSW,211,2.7,4.9,61,0.00,,SCT200,0.04,VWS V14.00,2013-01-28 18:22:00,
2013-01-28 11:28:00,32.7,21.1,29.80,SW,215,2.7,4.9,62,0.00,,SCT200,0.04,VWS V14.00,2013-01-28 18:28:00,
2013-01-28 11:33:00,32.7,21.5,29.80,SSW,197,2.2,4.0,63,0.00,,SCT200,0.04,VWS V14.00,2013-01-28 18:33:00,
2013-01-28 11:38:00,32.7,22.3,29.80,SSW,211,0.0,4.0,65,0.00,,SCT200,0.04,VWS V14.00,2013-01-28 18:38:00,
2013-01-28 11:43:00,32.7,22.3,29.80,SSW,193,0.0,4.0,65,0.00,,SCT200,0.04,VWS V14.00,2013-01-28 18:43:00,
2013-01-28 11:48:00,32.7,22.3,29.80,South,180,3.6,4.0,65,0.00,,SCT200,0.04,VWS V14.00,2013-01-28 18:48:00,
2013-01-28 11:53:00,32.9,22.4,29.80,SSW,206,5.4,5.4,65,0.00,,SCT200,0.04,VWS V14.00,2013-01-28 18:53:00,
2013-01-28 11:58:00,33.1,23.0,29.80,South,188,2.7,5.4,66,0.00,,BKN200,0.04,VWS V14.00,2013-01-28 18:58:00,
2013-01-28 12:03:00,33.1,22.6,29.80,SSW,207,3.1,4.0,65,0.00,,BKN200,0.04,VWS V14.00,2013-01-28 19:03:00,
2013-01-28 12:08:00,33.3,22.8,29.80,SSW,203,0.0,4.0,65,0.00,,BKN200,0.04,VWS V14.00,2013-01-28 19:08:00,
2013-01-28 12:13:00,33.6,23.1,29.80,South,189,5.4,5.4,65,0.00,,BKN200,0.04,VWS V14.00,2013-01-28 19:13:00,
2013-01-28 12:18:00,33.8,21.8,29.80,SSW,192,4.0,5.4,61,0.00,,BKN200,0.04,VWS V14.00,2013-01-28 19:18:00,
2013-01-28 12:23:00,33.8,20.6,29.77,South,191,0.0,5.4,58,0.00,,BKN200,0.04,VWS V14.00,2013-01-28 19:23:00,
2013-01-28 12:28:00,33.8,20.6,29.77,SW,230,3.1,6.3,58,0.00,,BKN200,0.04,VWS V14.00,2013-01-28 19:28:00,
2013-01-28 12:33:00,34.0,18.2,29.77,WSW,251,5.4,7.6,52,0.00,,BKN200,0.04,VWS V14.00,2013-01-28 19:33:00,
2013-01-28 12:38:00,34.5,16.9,29.77,SW,224,6.3,8.3,48,0.00,,BKN200,0.04,VWS V14.00,2013-01-28 19:38:00,
2013-01-28 12:43:00,34.9,16.7,29.77,West,264,5.8,9.2,47,0.00,,BKN200,0.04,VWS V14.00,2013-01-28 19:43:00,
2013-01-28 12:48:00,34.9,15.2,29.77,WSW,244,0.0,9.2,44,0.00,,BKN200,0.04,VWS V14.00,2013-01-28 19:48:00,
2013-01-28 12:53:00,35.1,17.4,29.77,SSW,193,6.3,9.2,48,0.00,,BKN200,0.04,VWS V14.00,2013-01-28 19:53:00,
2013-01-28 12:58:00,35.6,16.9,29.77,West,260,8.7,13.2,46,0.00,,BKN200,0.04,VWS V14.00,2013-01-28 19:58:00,
2013-01-28 13:03:00,36.0,14.6,29.77,West,278,8.1,8.1,41,0.00,,BKN200,0.04,VWS V14.00,2013-01-28 20:03:00,
2013-01-28 13:08:00,36.3,15.4,29.77,WNW,291,8.7,10.1,42,0.00,,BKN200,0.04,VWS V14.00,2013-01-28 20:08:00,
2013-01-28 13:13:00,36.3,14.9,29.77,West,281,10.1,10.1,41,0.00,,BKN200,0.04,VWS V14.00,2013-01-28 20:13:00,
2013-01-28 13:18:00,36.5,15.1,29.77,West,259,12.3,13.2,41,0.00,,BKN200,0.04,VWS V14.00,2013-01-28 20:18:00,
2013-01-28 13:23:00,36.3,14.3,29.74,West,279,12.8,13.2,40,0.00,,BKN200,0.04,VWS V14.00,2013-01-28 20:23:00,
2013-01-28 13:28:00,36.5,14.5,29.74,SW,231,8.1,15.9,40,0.00,,BKN200,0.04,VWS V14.00,2013-01-28 20:28:00,
2013-01-28 13:33:00,36.7,14.1,29.74,West,269,7.2,13.2,39,0.00,,BKN200,0.04,VWS V14.00,2013-01-28 20:33:00,
2013-01-28 13:38:00,36.3,14.3,29.74,West,264,3.6,13.2,40,0.00,,BKN200,0.04,VWS V14.00,2013-01-28 20:38:00,
2013-01-28 13:43:00,36.5,14.5,29.74,WNW,287,7.6,13.2,40,0.00,,BKN200,0.04,VWS V14.00,2013-01-28 20:43:00,
2013-01-28 13:48:00,36.9,14.2,29.74,West,268,12.3,15.0,39,0.00,,BKN200,0.04,VWS V14.00,2013-01-28 20:48:00,
2013-01-28 13:53:00,37.0,15.0,29.74,WSW,247,8.7,15.0,40,0.00,,BKN200,0.04,VWS V14.00,2013-01-28 20:53:00,
2013-01-28 13:58:00,37.4,13.5,29.74,West,279,8.3,15.0,37,0.00,,BKN200,0.04,VWS V14.00,2013-01-28 20:58:00,
2013-01-28 14:03:00,37.6,14.9,29.74,WSW,241,7.2,8.3,39,0.00,,BKN200,0.04,VWS V14.00,2013-01-28 21:03:00,
2013-01-28 14:08:00,37.8,13.8,29.74,SW,217,5.4,16.8,37,0.00,,BKN200,0.04,VWS V14.00,2013-01-28 21:08:00,
2013-01-28 14:13:00,37.6,13.7,29.74,WSW,250,10.1,16.8,37,0.00,,BKN200,0.04,VWS V14.00,2013-01-28 21:13:00,
2013-01-28 14:18:00,37.6,12.4,29.74,WNW,289,3.6,16.8,35,0.00,,BKN200,0.04,VWS V14.00,2013-01-28 21:18:00,
2013-01-28 14:23:00,37.9,14.0,29.74,West,269,7.2,16.8,37,0.00,,BKN200,0.04,VWS V14.00,2013-01-28 21:23:00,
2013-01-28 14:28:00,37.8,13.2,29.74,WSW,256,5.8,16.8,36,0.00,,BKN200,0.04,VWS V14.00,2013-01-28 21:28:00,
2013-01-28 14:33:00,37.8,13.2,29.74,West,270,11.0,16.8,36,0.00,,BKN200,0.04,VWS V14.00,2013-01-28 21:33:00,
2013-01-28 14:38:00,37.8,13.2,29.74,West,260,6.3,16.8,36,0.00,,BKN200,0.04,VWS V14.00,2013-01-28 21:38:00,
2013-01-28 14:43:00,37.8,11.9,29.74,West,280,2.7,16.8,34,0.00,,BKN200,0.04,VWS V14.00,2013-01-28 21:43:00,
2013-01-28 14:48:00,37.6,12.4,29.74,West,264,8.7,16.8,35,0.00,,BKN200,0.04,VWS V14.00,2013-01-28 21:48:00,
2013-01-28 14:53:00,37.6,11.8,29.74,WNW,285,8.1,16.8,34,0.00,,BKN200,0.04,VWS V14.00,2013-01-28 21:53:00,
2013-01-28 14:58:00,37.6,11.1,29.74,West,266,8.3,16.8,33,0.00,,BKN200,0.04,VWS V14.00,2013-01-28 21:58:00,
2013-01-28 15:03:00,37.4,10.2,29.74,SW,216,6.3,8.3,32,0.00,,BKN200,0.04,VWS V14.00,2013-01-28 22:03:00,
2013-01-28 15:08:00,37.2,10.8,29.74,WNW,283,13.6,13.6,33,0.00,,BKN200,0.04,VWS V14.00,2013-01-28 22:08:00,
2013-01-28 15:13:00,37.0,10.6,29.74,SW,235,8.1,15.0,33,0.00,,BKN200,0.04,VWS V14.00,2013-01-28 22:13:00,
2013-01-28 15:18:00,37.2,10.8,29.74,West,277,2.2,15.4,33,0.00,,BKN200,0.04,VWS V14.00,2013-01-28 22:18:00,
2013-01-28 15:23:00,37.9,11.4,29.74,West,279,6.3,15.4,33,0.00,,BKN200,0.04,VWS V14.00,2013-01-28 22:23:00,
2013-01-28 15:28:00,37.9,11.4,29.74,WNW,284,15.0,17.4,33,0.00,,BKN200,0.04,VWS V14.00,2013-01-28 22:28:00,
2013-01-28 15:33:00,37.9,11.4,29.74,West,265,10.5,14.1,33,0.00,,BKN200,0.04,VWS V14.00,2013-01-28 22:33:00,
2013-01-28 15:38:00,37.6,10.4,29.74,WNW,285,12.8,15.0,32,0.00,,BKN200,0.04,VWS V14.00,2013-01-28 22:38:00,
2013-01-28 15:43:00,37.2,10.8,29.74,West,276,12.3,15.0,33,0.00,,BKN200,0.04,VWS V14.00,2013-01-28 22:43:00,
2013-01-28 15:48:00,36.9,9.8,29.74,NW,321,5.4,15.0,32,0.00,,BKN200,0.04,VWS V14.00,2013-01-28 22:48:00,
2013-01-28 15:53:00,37.0,9.9,29.74,NW,326,10.5,15.0,32,0.00,,BKN200,0.04,VWS V14.00,2013-01-28 22:53:00,
2013-01-28 15:58:00,37.0,10.6,29.74,West,259,8.7,15.0,33,0.00,,BKN200,0.04,VWS V14.00,2013-01-28 22:58:00,
2013-01-28 16:03:00,36.9,10.5,29.74,WNW,300,7.2,10.5,33,0.00,,BKN200,0.04,VWS V14.00,2013-01-28 23:03:00,
2013-01-28 16:08:00,36.9,9.8,29.74,WNW,293,10.5,13.2,32,0.00,,BKN200,0.04,VWS V14.00,2013-01-28 23:08:00,
2013-01-28 16:13:00,36.9,9.8,29.74,West,273,11.9,15.0,32,0.00,,BKN200,0.04,VWS V14.00,2013-01-28 23:13:00,
2013-01-28 16:18:00,36.7,10.3,29.74,West,274,8.1,15.0,33,0.00,,BKN200,0.04,VWS V14.00,2013-01-28 23:18:00,
2013-01-28 16:23:00,36.3,10.0,29.74,WNW,303,8.7,15.0,33,0.00,,BKN200,0.04,VWS V14.00,2013-01-28 23:23:00,
2013-01-28 16:28:00,36.1,9.1,29.74,SW,228,12.8,17.4,32,0.00,,BKN200,0.04,VWS V14.00,2013-01-28 23:28:00,
2013-01-28 16:33:00,36.0,9.0,29.74,West,268,15.4,15.4,32,0.00,,BKN200,0.04,VWS V14.00,2013-01-28 23:33:00,
2013-01-28 16:38:00,35.8,8.8,29.74,West,277,7.6,15.4,32,0.00,,BKN200,0.04,VWS V14.00,2013-01-28 23:38:00,
2013-01-28 16:43:00,35.6,8.7,29.74,WSW,246,11.0,17.9,32,0.00,,BKN200,0.04,VWS V14.00,2013-01-28 23:43:00,
2013-01-28 16:48:00,35.4,8.5,29.74,WNW,301,8.7,17.9,32,0.00,,BKN200,0.04,VWS V14.00,2013-01-28 23:48:00,
2013-01-28 16:53:00,35.4,8.5,29.74,WSW,256,8.7,17.9,32,0.00,,BKN200,0.04,VWS V14.00,2013-01-28 23:53:00,
2013-01-28 16:58:00,34.9,8.0,29.74,West,277,10.1,17.9,32,0.00,,BKN200,0.04,VWS V14.00,2013-01-28 23:58:00,
2013-01-28 17:03:00,34.9,8.0,29.74,West,270,4.0,10.1,32,0.00,,BKN200,0.04,VWS V14.00,2013-01-29 00:03:00,
2013-01-28 17:08:00,34.5,7.7,29.74,West,260,3.6,10.1,32,0.00,,BKN200,0.04,VWS V14.00,2013-01-29 00:08:00,
2013-01-28 17:13:00,34.3,8.2,29.74,NW,314,11.0,13.2,33,0.00,,BKN200,0.04,VWS V14.00,2013-01-29 00:13:00,
2013-01-28 17:18:00,34.0,7.9,29.74,West,274,5.8,13.2,33,0.00,,BKN200,0.04,VWS V14.00,2013-01-29 00:18:00,
2013-01-28 17:23:00,33.6,8.3,29.74,WNW,285,5.8,13.2,34,0.00,,BKN200,0.04,VWS V14.00,2013-01-29 00:23:00,
2013-01-28 17:28:00,33.3,7.9,29.74,West,280,5.4,13.2,34,0.00,,BKN200,0.04,VWS V14.00,2013-01-29 00:28:00,
2013-01-28 17:33:00,33.1,7.8,29.74,WNW,283,5.4,8.3,34,0.00,,BKN200,0.04,VWS V14.00,2013-01-29 00:33:00,
2013-01-28 17:38:00,32.9,7.6,29.74,WNW,288,2.2,8.3,34,0.00,,BKN200,0.04,VWS V14.00,2013-01-29 00:38:00,
2013-01-28 17:43:00,32.7,6.8,29.74,West,273,6.3,8.3,33,0.00,,BKN200,0.04,VWS V14.00,2013-01-29 00:43:00,
2013-01-28 17:48:00,32.5,7.3,29.74,West,269,5.4,8.3,34,0.00,,BKN200,0.04,VWS V14.00,2013-01-29 00:48:00,
2013-01-28 17:53:00,32.4,7.1,29.74,West,278,0.0,10.5,34,0.00,,BKN200,0.04,VWS V14.00,2013-01-29 00:53:00,
2013-01-28 17:58:00,32.2,7.0,29.74,West,275,5.8,10.5,34,0.00,,BKN200,0.04,VWS V14.00,2013-01-29 00:58:00,
2013-01-28 18:03:00,32.0,7.5,29.74,WSW,256,3.6,10.5,35,0.00,,BKN200,0.04,VWS V14.00,2013-01-29 01:03:00,
2013-01-28 18:08:00,31.5,8.2,29.74,SSW,213,3.6,10.5,37,0.00,,BKN200,0.04,VWS V14.00,2013-01-29 01:08:00,
2013-01-28 18:13:00,30.7,9.8,29.74,SW,214,8.7,10.5,41,0.00,,BKN200,0.04,VWS V14.00,2013-01-29 01:13:00,
2013-01-28 18:18:00,30.2,11.9,29.74,WSW,258,2.7,10.5,46,0.00,,BKN200,0.04,VWS V14.00,2013-01-29 01:18:00,
2013-01-28 18:23:00,29.7,12.4,29.74,WSW,247,3.1,10.5,48,0.00,,BKN200,0.04,VWS V14.00,2013-01-29 01:23:00,
2013-01-28 18:28:00,29.3,12.1,29.74,WSW,255,0.0,10.5,48,0.00,,BKN200,0.04,VWS V14.00,2013-01-29 01:28:00,
2013-01-28 18:33:00,28.9,12.2,29.74,WNW,287,3.6,4.0,49,0.00,,BKN200,0.04,VWS V14.00,2013-01-29 01:33:00,
2013-01-28 18:38:00,28.6,11.9,29.77,WNW,294,0.0,4.0,49,0.00,,BKN200,0.04,VWS V14.00,2013-01-29 01:38:00,
2013-01-28 18:43:00,28.4,12.6,29.77,West,281,3.6,7.6,51,0.00,,BKN200,0.04,VWS V14.00,2013-01-29 01:43:00,
2013-01-28 18:48:00,28.4,12.6,29.77,West,261,3.1,7.6,51,0.00,,BKN200,0.04,VWS V14.00,2013-01-29 01:48:00,
2013-01-28 18:53:00,28.2,12.9,29.74,West,278,3.1,7.6,52,0.00,,BKN200,0.04,VWS V14.00,2013-01-29 01:53:00,
2013-01-28 18:58:00,28.2,12.4,29.74,WSW,250,2.7,7.6,51,0.00,,BKN200,0.04,VWS V14.00,2013-01-29 01:58:00,
2013-01-28 19:03:00,27.9,12.1,29.74,West,275,0.0,5.8,51,0.00,,BKN200,0.04,VWS V14.00,2013-01-29 02:03:00,
2013-01-28 19:08:00,27.7,12.8,29.74,West,263,2.7,5.8,53,0.00,,OVC200,0.04,VWS V14.00,2013-01-29 02:08:00,
2013-01-28 19:13:00,27.5,12.6,29.74,West,265,0.0,5.8,53,0.00,,OVC200,0.04,VWS V14.00,2013-01-29 02:13:00,
2013-01-28 19:18:00,27.3,12.5,29.74,West,272,3.1,5.8,53,0.00,,OVC200,0.04,VWS V14.00,2013-01-29 02:18:00,
2013-01-28 19:23:00,27.1,12.3,29.74,West,271,4.9,5.8,53,0.00,,OVC200,0.04,VWS V14.00,2013-01-29 02:23:00,
2013-01-28 19:28:00,27.1,13.1,29.74,West,266,3.6,6.3,55,0.00,,OVC200,0.04,VWS V14.00,2013-01-29 02:28:00,
2013-01-28 19:33:00,27.1,13.1,29.74,West,266,5.4,7.6,55,0.00,,OVC200,0.04,VWS V14.00,2013-01-29 02:33:00,
2013-01-28 19:38:00,27.1,13.1,29.74,West,270,3.6,7.6,55,0.00,,OVC200,0.04,VWS V14.00,2013-01-29 02:38:00,
2013-01-28 19:43:00,27.0,13.0,29.74,West,260,3.1,7.6,55,0.00,,OVC200,0.04,VWS V14.00,2013-01-29 02:43:00,
2013-01-28 19:48:00,27.0,13.0,29.74,West,268,4.0,7.6,55,0.00,,OVC200,0.04,VWS V14.00,2013-01-29 02:48:00,
2013-01-28 19:53:00,26.8,12.8,29.74,West,268,3.1,7.6,55,0.00,,OVC200,0.04,VWS V14.00,2013-01-29 02:53:00,
2013-01-28 19:58:00,26.4,12.9,29.74,West,264,3.6,7.6,56,0.00,,OVC200,0.04,VWS V14.00,2013-01-29 02:58:00,
2013-01-28 20:03:00,26.6,13.0,29.74,West,272,4.0,6.3,56,0.00,,OVC200,0.04,VWS V14.00,2013-01-29 03:03:00,
2013-01-28 20:08:00,26.6,13.0,29.74,West,267,3.6,6.3,56,0.00,,OVC130,0.04,VWS V14.00,2013-01-29 03:08:00,
2013-01-28 20:13:00,26.4,12.5,29.74,West,275,3.1,6.7,55,0.00,,OVC130,0.04,VWS V14.00,2013-01-29 03:13:00,
2013-01-28 20:18:00,26.4,12.5,29.74,West,265,4.0,6.7,55,0.00,,OVC130,0.04,VWS V14.00,2013-01-29 03:18:00,
2013-01-28 20:23:00,26.2,12.7,29.74,SW,226,4.9,6.7,56,0.00,,OVC130,0.04,VWS V14.00,2013-01-29 03:23:00,
2013-01-28 20:28:00,26.2,12.7,29.74,WSW,251,3.1,6.7,56,0.00,,OVC130,0.04,VWS V14.00,2013-01-29 03:28:00,
2013-01-28 20:33:00,26.1,12.5,29.74,West,260,0.0,5.4,56,0.00,,OVC130,0.04,VWS V14.00,2013-01-29 03:33:00,
2013-01-28 20:38:00,25.7,12.6,29.74,WSW,258,4.0,5.4,57,0.00,,OVC130,0.04,VWS V14.00,2013-01-29 03:38:00,
2013-01-28 20:43:00,25.7,12.6,29.74,West,266,2.7,6.3,57,0.00,,OVC130,0.04,VWS V14.00,2013-01-29 03:43:00,
2013-01-28 20:48:00,25.9,12.4,29.74,West,280,4.0,8.7,56,0.00,,OVC130,0.04,VWS V14.00,2013-01-29 03:48:00,
2013-01-28 20:53:00,26.1,12.5,29.74,WSW,249,4.0,8.7,56,0.00,,OVC130,0.04,VWS V14.00,2013-01-29 03:53:00,
2013-01-28 20:58:00,26.1,12.1,29.74,West,274,5.4,8.7,55,0.00,,OVC130,0.04,VWS V14.00,2013-01-29 03:58:00,
2013-01-28 21:03:00,25.9,11.9,29.74,West,273,0.0,0.0,55,0.00,,OVC130,0.04,VWS V14.00,2013-01-29 04:03:00,
2013-01-28 21:08:00,25.7,11.8,29.74,West,271,0.0,0.0,55,0.00,,OVC055,0.04,VWS V14.00,2013-01-29 04:08:00,
2013-01-28 21:13:00,25.3,11.4,29.74,West,272,0.0,0.0,55,0.00,,OVC055,0.04,VWS V14.00,2013-01-29 04:13:00,
2013-01-28 21:18:00,25.0,11.1,29.74,West,272,0.0,0.0,55,0.00,,OVC055,0.04,VWS V14.00,2013-01-29 04:18:00,
2013-01-28 21:23:00,24.6,11.2,29.74,West,278,0.0,4.9,56,0.00,,,0.04,VWS V14.00,2013-01-29 04:23:00,
2013-01-28 21:28:00,24.4,12.2,29.74,WSW,244,3.6,6.3,59,0.00,,,0.04,VWS V14.00,2013-01-29 04:28:00,
2013-01-28 21:33:00,24.6,12.0,29.74,WSW,253,3.6,8.1,58,0.00,,,0.04,VWS V14.00,2013-01-29 04:33:00,
2013-01-28 21:38:00,24.8,12.1,29.71,WSW,245,3.1,8.1,58,0.00,,,0.04,VWS V14.00,2013-01-29 04:38:00,
2013-01-28 21:43:00,25.2,12.5,29.71,West,270,2.7,10.1,58,0.00,,,0.04,VWS V14.00,2013-01-29 04:43:00,
2013-01-28 21:48:00,25.2,11.7,29.71,WNW,296,5.4,10.1,56,0.00,,,0.04,VWS V14.00,2013-01-29 04:48:00,
2013-01-28 21:53:00,25.3,11.9,29.71,West,267,3.1,10.1,56,0.00,,,0.04,VWS V14.00,2013-01-29 04:53:00,
2013-01-28 21:58:00,25.2,12.1,29.71,West,271,3.6,10.1,57,0.00,,,0.04,VWS V14.00,2013-01-29 04:58:00,
2013-01-28 22:00:00,25.0,11.9,29.71,West,262,5.4,10.1,57,0.00,,,0.04,VWS V14.00,2013-01-29 05:00:00,
2013-01-28 22:01:00,25.0,11.9,29.71,West,262,2.7,10.1,57,0.00,,,0.04,VWS V14.00,2013-01-29 05:01:00,
2013-01-28 22:02:00,25.0,11.9,29.71,West,263,4.9,4.9,57,0.00,,,0.04,VWS V14.00,2013-01-29 05:02:00,
2013-01-28 22:07:00,24.8,11.3,29.71,West,265,4.9,5.4,56,0.00,,,0.04,VWS V14.00,2013-01-29 05:07:00,
2013-01-28 22:12:00,24.6,11.2,29.71,WSW,250,2.2,5.4,56,0.00,,,0.04,VWS V14.00,2013-01-29 05:12:00,
2013-01-28 22:17:00,24.4,11.8,29.71,West,275,3.6,5.8,58,0.00,,,0.04,VWS V14.00,2013-01-29 05:17:00,
2013-01-28 22:22:00,24.3,11.2,29.71,West,265,4.9,5.8,57,0.00,,,0.04,VWS V14.00,2013-01-29 05:22:00,
2013-01-28 22:27:00,24.1,11.5,29.71,West,265,5.4,6.3,58,0.00,,,0.04,VWS V14.00,2013-01-29 05:27:00,
2013-01-28 22:32:00,24.1,11.5,29.71,West,262,6.3,6.3,58,0.00,,,0.04,VWS V14.00,2013-01-29 05:32:00,
2013-01-28 22:37:00,24.1,11.5,29.71,West,265,4.5,6.3,58,0.00,,,0.04,VWS V14.00,2013-01-29 05:37:00,
2013-01-28 22:42:00,24.1,11.5,29.71,West,273,3.6,6.7,58,0.00,,,0.04,VWS V14.00,2013-01-29 05:42:00,
2013-01-28 22:47:00,23.9,11.3,29.71,WSW,258,3.6,6.7,58,0.00,,,0.04,VWS V14.00,2013-01-29 05:47:00,
2013-01-28 22:52:00,23.7,11.1,29.71,WSW,249,5.8,7.6,58,0.00,,,0.04,VWS V14.00,2013-01-29 05:52:00,
2013-01-28 22:57:00,23.7,11.5,29.71,WSW,242,8.1,8.1,59,0.00,,,0.04,VWS V14.00,2013-01-29 05:57:00,
2013-01-28 23:02:00,23.5,10.9,29.71,West,276,4.0,4.0,58,0.00,,,0.04,VWS V14.00,2013-01-29 06:02:00,
2013-01-28 23:07:00,23.4,11.2,29.71,WSW,257,4.0,5.4,59,0.00,,,0.04,VWS V14.00,2013-01-29 06:07:00,
2013-01-28 23:12:00,23.2,11.0,29.71,West,266,3.6,5.8,59,0.00,,,0.04,VWS V14.00,2013-01-29 06:12:00,
2013-01-28 23:17:00,23.2,11.7,29.71,West,267,3.1,7.6,61,0.00,,,0.04,VWS V14.00,2013-01-29 06:17:00,
2013-01-28 23:22:00,23.2,11.4,29.71,West,279,7.6,10.1,60,0.00,,,0.04,VWS V14.00,2013-01-29 06:22:00,
2013-01-28 23:27:00,23.0,11.2,29.71,West,274,3.1,10.1,60,0.00,,,0.04,VWS V14.00,2013-01-29 06:27:00,
2013-01-28 23:32:00,23.0,11.2,29.71,West,280,6.3,6.3,60,0.00,,,0.04,VWS V14.00,2013-01-29 06:32:00,
2013-01-28 23:37:00,22.8,10.6,29.71,West,259,4.9,7.6,59,0.00,,,0.04,VWS V14.00,2013-01-29 06:37:00,
2013-01-28 23:42:00,22.6,10.5,29.71,WNW,286,5.4,7.6,59,0.00,,,0.04,VWS V14.00,2013-01-29 06:42:00,
2013-01-28 23:47:00,22.6,10.9,29.71,West,263,5.4,7.6,60,0.00,,,0.04,VWS V14.00,2013-01-29 06:47:00,
2013-01-28 23:52:00,22.6,10.5,29.71,West,270,4.0,7.6,59,0.00,,,0.04,VWS V14.00,2013-01-29 06:52:00,
2013-01-28 23:57:00,22.5,10.7,29.71,WSW,248,2.7,7.6,60,0.00,,,0.04,VWS V14.00,2013-01-29 06:57:00,